sensor_id;sensor_type;location;lat;lon;timestamp;P1;durP1;ratioP1;P2;durP2;ratioP2
23670;SDS011;12012;51.998;7.614;2023-04-03T00:01:12;5.43;;;1.92;;
23670;SDS011;12012;51.998;7.614;2023-04-03T00:03:38;4.65;;;1.92;;
23670;SDS011;12012;51.998;7.614;2023-04-03T00:06:03;4.05;;;1.80;;
23670;SDS011;12012;51.998;7.614;2023-04-03T00:08:31;3.55;;;1.50;;
23670;SDS011;12012;51.998;7.614;2023-04-03T00:10:57;2.75;;;1.40;;
23670;SDS011;12012;51.998;7.614;2023-04-03T00:13:23;3.42;;;1.63;;
23670;SDS011;12012;51.998;7.614;2023-04-03T00:15:49;4.82;;;1.65;;
23670;SDS011;12012;51.998;7.614;2023-04-03T00:18:16;3.83;;;1.42;;
23670;SDS011;12012;51.998;7.614;2023-04-03T00:20:41;4.78;;;1.70;;
23670;SDS011;12012;51.998;7.614;2023-04-03T00:23:07;3.53;;;1.77;;
23670;SDS011;12012;51.998;7.614;2023-04-03T00:25:33;5.95;;;2.08;;
23670;SDS011;12012;51.998;7.614;2023-04-03T00:27:58;4.13;;;1.88;;
23670;SDS011;12012;51.998;7.614;2023-04-03T00:30:24;3.85;;;1.83;;
23670;SDS011;12012;51.998;7.614;2023-04-03T00:32:51;5.65;;;1.58;;
23670;SDS011;12012;51.998;7.614;2023-04-03T00:35:17;4.28;;;1.83;;
23670;SDS011;12012;51.998;7.614;2023-04-03T00:37:44;6.00;;;2.13;;
23670;SDS011;12012;51.998;7.614;2023-04-03T00:40:11;4.90;;;1.90;;
23670;SDS011;12012;51.998;7.614;2023-04-03T00:42:39;4.35;;;1.60;;
23670;SDS011;12012;51.998;7.614;2023-04-03T00:48:08;4.75;;;1.60;;
23670;SDS011;12012;51.998;7.614;2023-04-03T00:50:40;5.82;;;1.88;;
23670;SDS011;12012;51.998;7.614;2023-04-03T00:53:07;6.90;;;1.90;;
23670;SDS011;12012;51.998;7.614;2023-04-03T00:55:38;5.85;;;1.98;;
23670;SDS011;12012;51.998;7.614;2023-04-03T00:58:06;5.93;;;1.60;;
23670;SDS011;12012;51.998;7.614;2023-04-03T01:00:32;5.45;;;1.50;;
23670;SDS011;12012;51.998;7.614;2023-04-03T01:02:58;4.28;;;1.50;;
23670;SDS011;12012;51.998;7.614;2023-04-03T01:05:25;7.20;;;2.42;;
23670;SDS011;12012;51.998;7.614;2023-04-03T01:07:50;4.70;;;1.40;;
23670;SDS011;12012;51.998;7.614;2023-04-03T01:10:17;4.60;;;2.13;;
23670;SDS011;12012;51.998;7.614;2023-04-03T01:12:46;4.95;;;1.58;;
23670;SDS011;12012;51.998;7.614;2023-04-03T01:15:25;4.47;;;1.80;;
23670;SDS011;12012;51.998;7.614;2023-04-03T01:17:54;4.25;;;1.90;;
23670;SDS011;12012;51.998;7.614;2023-04-03T01:22:59;3.92;;;1.70;;
23670;SDS011;12012;51.998;7.614;2023-04-03T01:25:35;7.03;;;1.88;;
23670;SDS011;12012;51.998;7.614;2023-04-03T01:28:04;5.40;;;1.92;;
23670;SDS011;12012;51.998;7.614;2023-04-03T01:30:34;4.05;;;1.75;;
23670;SDS011;12012;51.998;7.614;2023-04-03T01:33:06;6.68;;;2.03;;
23670;SDS011;12012;51.998;7.614;2023-04-03T01:35:31;3.53;;;1.52;;
23670;SDS011;12012;51.998;7.614;2023-04-03T01:37:57;6.90;;;1.67;;
23670;SDS011;12012;51.998;7.614;2023-04-03T01:40:22;7.13;;;2.03;;
23670;SDS011;12012;51.998;7.614;2023-04-03T01:42:48;5.30;;;1.65;;
23670;SDS011;12012;51.998;7.614;2023-04-03T01:45:14;5.75;;;1.75;;
23670;SDS011;12012;51.998;7.614;2023-04-03T01:47:40;8.45;;;2.63;;
23670;SDS011;12012;51.998;7.614;2023-04-03T01:50:05;4.75;;;1.90;;
23670;SDS011;12012;51.998;7.614;2023-04-03T01:52:31;6.60;;;2.00;;
23670;SDS011;12012;51.998;7.614;2023-04-03T01:54:57;5.00;;;1.90;;
23670;SDS011;12012;51.998;7.614;2023-04-03T01:57:22;4.18;;;1.80;;
23670;SDS011;12012;51.998;7.614;2023-04-03T01:59:48;7.47;;;2.17;;
23670;SDS011;12012;51.998;7.614;2023-04-03T02:02:13;4.93;;;1.80;;
23670;SDS011;12012;51.998;7.614;2023-04-03T02:04:40;7.28;;;2.05;;
23670;SDS011;12012;51.998;7.614;2023-04-03T02:07:06;5.80;;;1.80;;
23670;SDS011;12012;51.998;7.614;2023-04-03T02:09:31;4.72;;;1.77;;
23670;SDS011;12012;51.998;7.614;2023-04-03T02:11:57;4.90;;;1.75;;
23670;SDS011;12012;51.998;7.614;2023-04-03T02:14:23;3.63;;;1.67;;
23670;SDS011;12012;51.998;7.614;2023-04-03T02:16:48;4.60;;;1.88;;
23670;SDS011;12012;51.998;7.614;2023-04-03T02:19:14;4.53;;;1.70;;
23670;SDS011;12012;51.998;7.614;2023-04-03T02:21:40;7.72;;;2.20;;
23670;SDS011;12012;51.998;7.614;2023-04-03T02:24:06;6.38;;;2.03;;
23670;SDS011;12012;51.998;7.614;2023-04-03T02:26:32;7.00;;;2.00;;
23670;SDS011;12012;51.998;7.614;2023-04-03T02:28:57;6.38;;;2.20;;
23670;SDS011;12012;51.998;7.614;2023-04-03T02:31:23;4.18;;;2.55;;
23670;SDS011;12012;51.998;7.614;2023-04-03T02:33:49;6.28;;;1.85;;
23670;SDS011;12012;51.998;7.614;2023-04-03T02:36:15;4.45;;;1.83;;
23670;SDS011;12012;51.998;7.614;2023-04-03T02:38:40;5.25;;;1.80;;
23670;SDS011;12012;51.998;7.614;2023-04-03T02:41:08;6.13;;;2.50;;
23670;SDS011;12012;51.998;7.614;2023-04-03T02:43:35;7.80;;;2.28;;
23670;SDS011;12012;51.998;7.614;2023-04-03T02:46:01;7.00;;;2.20;;
23670;SDS011;12012;51.998;7.614;2023-04-03T02:48:27;4.28;;;2.00;;
23670;SDS011;12012;51.998;7.614;2023-04-03T02:50:53;3.35;;;1.88;;
23670;SDS011;12012;51.998;7.614;2023-04-03T02:53:19;9.80;;;2.40;;
23670;SDS011;12012;51.998;7.614;2023-04-03T02:55:44;4.30;;;1.60;;
23670;SDS011;12012;51.998;7.614;2023-04-03T02:58:10;7.55;;;2.42;;
23670;SDS011;12012;51.998;7.614;2023-04-03T03:00:36;4.63;;;1.80;;
23670;SDS011;12012;51.998;7.614;2023-04-03T03:03:02;6.05;;;2.08;;
23670;SDS011;12012;51.998;7.614;2023-04-03T03:05:28;6.70;;;2.08;;
23670;SDS011;12012;51.998;7.614;2023-04-03T03:07:54;5.63;;;2.15;;
23670;SDS011;12012;51.998;7.614;2023-04-03T03:10:20;5.68;;;1.98;;
23670;SDS011;12012;51.998;7.614;2023-04-03T03:12:46;9.45;;;2.25;;
23670;SDS011;12012;51.998;7.614;2023-04-03T03:15:11;5.38;;;2.40;;
23670;SDS011;12012;51.998;7.614;2023-04-03T03:17:37;7.20;;;2.03;;
23670;SDS011;12012;51.998;7.614;2023-04-03T03:20:06;8.00;;;2.60;;
23670;SDS011;12012;51.998;7.614;2023-04-03T03:22:32;6.95;;;2.10;;
23670;SDS011;12012;51.998;7.614;2023-04-03T03:24:58;7.38;;;2.15;;
23670;SDS011;12012;51.998;7.614;2023-04-03T03:27:24;6.03;;;1.92;;
23670;SDS011;12012;51.998;7.614;2023-04-03T03:29:50;7.03;;;2.10;;
23670;SDS011;12012;51.998;7.614;2023-04-03T03:32:15;8.80;;;2.58;;
23670;SDS011;12012;51.998;7.614;2023-04-03T03:34:41;6.80;;;2.25;;
23670;SDS011;12012;51.998;7.614;2023-04-03T03:37:06;7.40;;;2.30;;
23670;SDS011;12012;51.998;7.614;2023-04-03T03:39:32;5.30;;;2.33;;
23670;SDS011;12012;51.998;7.614;2023-04-03T03:41:57;6.47;;;2.50;;
23670;SDS011;12012;51.998;7.614;2023-04-03T03:44:23;5.05;;;2.35;;
23670;SDS011;12012;51.998;7.614;2023-04-03T03:46:49;5.22;;;1.88;;
23670;SDS011;12012;51.998;7.614;2023-04-03T03:49:14;8.68;;;2.70;;
23670;SDS011;12012;51.998;7.614;2023-04-03T03:51:40;8.82;;;2.20;;
23670;SDS011;12012;51.998;7.614;2023-04-03T03:54:06;6.95;;;2.17;;
23670;SDS011;12012;51.998;7.614;2023-04-03T03:56:32;6.53;;;2.33;;
23670;SDS011;12012;51.998;7.614;2023-04-03T03:58:58;7.57;;;2.55;;
23670;SDS011;12012;51.998;7.614;2023-04-03T04:01:24;8.00;;;2.00;;
23670;SDS011;12012;51.998;7.614;2023-04-03T04:03:50;6.13;;;2.25;;
23670;SDS011;12012;51.998;7.614;2023-04-03T04:06:16;5.95;;;2.63;;
23670;SDS011;12012;51.998;7.614;2023-04-03T04:08:42;7.68;;;2.40;;
23670;SDS011;12012;51.998;7.614;2023-04-03T04:11:08;5.15;;;2.17;;
23670;SDS011;12012;51.998;7.614;2023-04-03T04:13:34;7.53;;;2.58;;
23670;SDS011;12012;51.998;7.614;2023-04-03T04:16:00;5.63;;;2.47;;
23670;SDS011;12012;51.998;7.614;2023-04-03T04:18:26;4.70;;;2.08;;
23670;SDS011;12012;51.998;7.614;2023-04-03T04:20:51;5.07;;;2.00;;
23670;SDS011;12012;51.998;7.614;2023-04-03T04:23:17;6.30;;;2.25;;
23670;SDS011;12012;51.998;7.614;2023-04-03T04:25:44;4.05;;;2.28;;
23670;SDS011;12012;51.998;7.614;2023-04-03T04:28:11;9.40;;;2.35;;
23670;SDS011;12012;51.998;7.614;2023-04-03T04:30:37;9.35;;;2.50;;
23670;SDS011;12012;51.998;7.614;2023-04-03T04:33:03;9.00;;;2.55;;
23670;SDS011;12012;51.998;7.614;2023-04-03T04:35:28;7.28;;;2.05;;
23670;SDS011;12012;51.998;7.614;2023-04-03T04:37:54;8.35;;;2.17;;
23670;SDS011;12012;51.998;7.614;2023-04-03T04:40:20;6.82;;;2.20;;
23670;SDS011;12012;51.998;7.614;2023-04-03T04:42:45;7.75;;;2.33;;
23670;SDS011;12012;51.998;7.614;2023-04-03T04:45:11;7.35;;;2.40;;
23670;SDS011;12012;51.998;7.614;2023-04-03T04:47:37;10.13;;;2.10;;
23670;SDS011;12012;51.998;7.614;2023-04-03T04:50:03;6.47;;;2.38;;
23670;SDS011;12012;51.998;7.614;2023-04-03T04:52:29;5.82;;;2.58;;
23670;SDS011;12012;51.998;7.614;2023-04-03T04:54:54;8.63;;;2.47;;
23670;SDS011;12012;51.998;7.614;2023-04-03T04:57:20;4.32;;;1.77;;
23670;SDS011;12012;51.998;7.614;2023-04-03T04:59:45;8.00;;;2.17;;
23670;SDS011;12012;51.998;7.614;2023-04-03T05:02:11;7.45;;;2.40;;
23670;SDS011;12012;51.998;7.614;2023-04-03T05:04:37;10.48;;;2.28;;
23670;SDS011;12012;51.998;7.614;2023-04-03T05:07:02;7.13;;;2.17;;
23670;SDS011;12012;51.998;7.614;2023-04-03T05:09:28;6.55;;;2.20;;
23670;SDS011;12012;51.998;7.614;2023-04-03T05:11:53;5.85;;;2.25;;
23670;SDS011;12012;51.998;7.614;2023-04-03T05:14:19;9.13;;;2.90;;
23670;SDS011;12012;51.998;7.614;2023-04-03T05:16:45;10.00;;;2.65;;
23670;SDS011;12012;51.998;7.614;2023-04-03T05:19:10;6.15;;;2.22;;
23670;SDS011;12012;51.998;7.614;2023-04-03T05:21:36;5.75;;;2.30;;
23670;SDS011;12012;51.998;7.614;2023-04-03T05:24:02;6.43;;;2.33;;
23670;SDS011;12012;51.998;7.614;2023-04-03T05:26:28;8.27;;;2.38;;
23670;SDS011;12012;51.998;7.614;2023-04-03T05:28:55;7.93;;;2.28;;
23670;SDS011;12012;51.998;7.614;2023-04-03T05:31:20;7.57;;;2.85;;
23670;SDS011;12012;51.998;7.614;2023-04-03T05:33:46;6.63;;;2.00;;
23670;SDS011;12012;51.998;7.614;2023-04-03T05:36:13;5.82;;;2.00;;
23670;SDS011;12012;51.998;7.614;2023-04-03T05:38:38;7.65;;;2.28;;
23670;SDS011;12012;51.998;7.614;2023-04-03T05:41:04;11.32;;;2.97;;
23670;SDS011;12012;51.998;7.614;2023-04-03T05:43:30;7.78;;;2.53;;
23670;SDS011;12012;51.998;7.614;2023-04-03T05:45:55;10.35;;;2.95;;
23670;SDS011;12012;51.998;7.614;2023-04-03T05:48:21;6.93;;;1.98;;
23670;SDS011;12012;51.998;7.614;2023-04-03T05:50:47;7.75;;;2.00;;
23670;SDS011;12012;51.998;7.614;2023-04-03T05:53:14;5.80;;;2.13;;
23670;SDS011;12012;51.998;7.614;2023-04-03T05:55:47;6.97;;;1.98;;
23670;SDS011;12012;51.998;7.614;2023-04-03T05:58:12;6.22;;;2.08;;
23670;SDS011;12012;51.998;7.614;2023-04-03T06:00:38;6.55;;;2.05;;
23670;SDS011;12012;51.998;7.614;2023-04-03T06:03:03;6.43;;;2.55;;
23670;SDS011;12012;51.998;7.614;2023-04-03T06:05:30;8.90;;;2.33;;
23670;SDS011;12012;51.998;7.614;2023-04-03T06:07:55;6.68;;;2.10;;
23670;SDS011;12012;51.998;7.614;2023-04-03T06:10:22;6.50;;;2.20;;
23670;SDS011;12012;51.998;7.614;2023-04-03T06:12:47;7.63;;;2.38;;
23670;SDS011;12012;51.998;7.614;2023-04-03T06:15:13;8.15;;;2.60;;
23670;SDS011;12012;51.998;7.614;2023-04-03T06:17:39;10.48;;;2.33;;
23670;SDS011;12012;51.998;7.614;2023-04-03T06:20:05;5.55;;;1.90;;
23670;SDS011;12012;51.998;7.614;2023-04-03T06:22:31;8.20;;;2.22;;
23670;SDS011;12012;51.998;7.614;2023-04-03T06:24:57;8.73;;;2.50;;
23670;SDS011;12012;51.998;7.614;2023-04-03T06:27:22;7.65;;;1.98;;
23670;SDS011;12012;51.998;7.614;2023-04-03T06:29:48;9.02;;;2.67;;
23670;SDS011;12012;51.998;7.614;2023-04-03T06:32:14;9.63;;;2.65;;
23670;SDS011;12012;51.998;7.614;2023-04-03T06:34:41;7.13;;;2.10;;
23670;SDS011;12012;51.998;7.614;2023-04-03T06:37:10;6.15;;;2.20;;
23670;SDS011;12012;51.998;7.614;2023-04-03T06:39:39;7.10;;;2.15;;
23670;SDS011;12012;51.998;7.614;2023-04-03T06:42:05;8.13;;;1.95;;
23670;SDS011;12012;51.998;7.614;2023-04-03T06:44:31;7.28;;;2.10;;
23670;SDS011;12012;51.998;7.614;2023-04-03T06:46:58;6.78;;;2.20;;
23670;SDS011;12012;51.998;7.614;2023-04-03T06:49:24;7.72;;;2.15;;
23670;SDS011;12012;51.998;7.614;2023-04-03T06:51:50;5.32;;;2.30;;
23670;SDS011;12012;51.998;7.614;2023-04-03T06:54:16;7.00;;;2.65;;
23670;SDS011;12012;51.998;7.614;2023-04-03T06:56:42;8.50;;;2.55;;
23670;SDS011;12012;51.998;7.614;2023-04-03T06:59:08;4.75;;;2.05;;
23670;SDS011;12012;51.998;7.614;2023-04-03T07:01:35;11.85;;;2.08;;
23670;SDS011;12012;51.998;7.614;2023-04-03T07:04:00;10.77;;;1.85;;
23670;SDS011;12012;51.998;7.614;2023-04-03T07:06:26;7.03;;;2.10;;
23670;SDS011;12012;51.998;7.614;2023-04-03T07:08:52;6.55;;;1.92;;
23670;SDS011;12012;51.998;7.614;2023-04-03T07:11:18;4.55;;;2.22;;
23670;SDS011;12012;51.998;7.614;2023-04-03T07:13:43;8.80;;;2.05;;
23670;SDS011;12012;51.998;7.614;2023-04-03T07:16:09;7.03;;;1.80;;
23670;SDS011;12012;51.998;7.614;2023-04-03T07:18:35;7.90;;;2.03;;
23670;SDS011;12012;51.998;7.614;2023-04-03T07:21:01;6.00;;;1.90;;
23670;SDS011;12012;51.998;7.614;2023-04-03T07:23:27;9.38;;;1.80;;
23670;SDS011;12012;51.998;7.614;2023-04-03T07:25:53;6.28;;;1.85;;
23670;SDS011;12012;51.998;7.614;2023-04-03T07:28:19;7.22;;;1.90;;
23670;SDS011;12012;51.998;7.614;2023-04-03T07:30:48;4.03;;;1.50;;
23670;SDS011;12012;51.998;7.614;2023-04-03T07:33:18;5.68;;;1.77;;
23670;SDS011;12012;51.998;7.614;2023-04-03T07:35:45;5.60;;;1.90;;
23670;SDS011;12012;51.998;7.614;2023-04-03T07:38:11;4.38;;;1.70;;
23670;SDS011;12012;51.998;7.614;2023-04-03T07:40:36;5.07;;;1.60;;
23670;SDS011;12012;51.998;7.614;2023-04-03T07:43:03;3.60;;;1.65;;
23670;SDS011;12012;51.998;7.614;2023-04-03T07:45:30;4.80;;;1.80;;
23670;SDS011;12012;51.998;7.614;2023-04-03T07:47:56;5.18;;;2.25;;
23670;SDS011;12012;51.998;7.614;2023-04-03T07:50:22;5.05;;;1.58;;
23670;SDS011;12012;51.998;7.614;2023-04-03T07:52:48;5.82;;;2.00;;
23670;SDS011;12012;51.998;7.614;2023-04-03T07:55:15;4.40;;;1.88;;
23670;SDS011;12012;51.998;7.614;2023-04-03T07:57:41;5.90;;;2.08;;
23670;SDS011;12012;51.998;7.614;2023-04-03T08:00:07;5.85;;;1.83;;
23670;SDS011;12012;51.998;7.614;2023-04-03T08:02:34;4.43;;;1.58;;
23670;SDS011;12012;51.998;7.614;2023-04-03T08:05:00;4.32;;;1.52;;
23670;SDS011;12012;51.998;7.614;2023-04-03T08:07:26;4.93;;;1.70;;
23670;SDS011;12012;51.998;7.614;2023-04-03T08:09:52;3.88;;;1.50;;
23670;SDS011;12012;51.998;7.614;2023-04-03T08:12:17;4.78;;;1.70;;
23670;SDS011;12012;51.998;7.614;2023-04-03T08:14:43;5.43;;;1.63;;
23670;SDS011;12012;51.998;7.614;2023-04-03T08:17:09;5.75;;;1.70;;
23670;SDS011;12012;51.998;7.614;2023-04-03T08:19:37;4.40;;;1.50;;
23670;SDS011;12012;51.998;7.614;2023-04-03T08:22:03;4.10;;;1.58;;
23670;SDS011;12012;51.998;7.614;2023-04-03T08:24:29;5.25;;;2.05;;
23670;SDS011;12012;51.998;7.614;2023-04-03T08:26:59;6.28;;;1.65;;
23670;SDS011;12012;51.998;7.614;2023-04-03T08:29:25;2.67;;;1.13;;
23670;SDS011;12012;51.998;7.614;2023-04-03T08:31:51;4.53;;;1.50;;
23670;SDS011;12012;51.998;7.614;2023-04-03T08:34:16;4.60;;;1.50;;
23670;SDS011;12012;51.998;7.614;2023-04-03T08:36:42;2.50;;;1.48;;
23670;SDS011;12012;51.998;7.614;2023-04-03T08:39:09;3.70;;;1.20;;
23670;SDS011;12012;51.998;7.614;2023-04-03T08:51:53;3.20;;;1.20;;
23670;SDS011;12012;51.998;7.614;2023-04-03T08:54:23;4.25;;;1.30;;
23670;SDS011;12012;51.998;7.614;2023-04-03T08:56:53;3.03;;;1.25;;
23670;SDS011;12012;51.998;7.614;2023-04-03T08:59:24;5.40;;;1.50;;
23670;SDS011;12012;51.998;7.614;2023-04-03T09:01:56;3.40;;;1.20;;
23670;SDS011;12012;51.998;7.614;2023-04-03T09:04:24;2.92;;;1.20;;
23670;SDS011;12012;51.998;7.614;2023-04-03T09:06:53;3.55;;;1.27;;
23670;SDS011;12012;51.998;7.614;2023-04-03T09:09:33;3.47;;;1.25;;
23670;SDS011;12012;51.998;7.614;2023-04-03T09:12:15;3.40;;;1.30;;
23670;SDS011;12012;51.998;7.614;2023-04-03T09:26:39;2.75;;;1.13;;
23670;SDS011;12012;51.998;7.614;2023-04-03T09:29:06;3.83;;;1.30;;
23670;SDS011;12012;51.998;7.614;2023-04-03T09:31:36;2.72;;;1.30;;
23670;SDS011;12012;51.998;7.614;2023-04-03T09:34:06;5.97;;;1.20;;
23670;SDS011;12012;51.998;7.614;2023-04-03T09:36:48;4.38;;;1.52;;
23670;SDS011;12012;51.998;7.614;2023-04-03T09:39:17;4.00;;;1.45;;
23670;SDS011;12012;51.998;7.614;2023-04-03T09:41:58;3.63;;;1.30;;
23670;SDS011;12012;51.998;7.614;2023-04-03T09:44:29;3.25;;;1.25;;
23670;SDS011;12012;51.998;7.614;2023-04-03T09:47:21;3.65;;;1.13;;
23670;SDS011;12012;51.998;7.614;2023-04-03T09:52:37;2.45;;;1.15;;
23670;SDS011;12012;51.998;7.614;2023-04-03T09:55:19;2.53;;;0.93;;
23670;SDS011;12012;51.998;7.614;2023-04-03T09:57:51;3.22;;;1.00;;
23670;SDS011;12012;51.998;7.614;2023-04-03T10:00:32;1.92;;;1.00;;
23670;SDS011;12012;51.998;7.614;2023-04-03T10:02:58;2.53;;;1.05;;
23670;SDS011;12012;51.998;7.614;2023-04-03T10:05:28;4.03;;;1.20;;
23670;SDS011;12012;51.998;7.614;2023-04-03T10:08:07;2.03;;;1.00;;
23670;SDS011;12012;51.998;7.614;2023-04-03T10:10:33;4.10;;;1.10;;
23670;SDS011;12012;51.998;7.614;2023-04-03T10:13:03;1.92;;;1.05;;
23670;SDS011;12012;51.998;7.614;2023-04-03T10:15:42;2.67;;;0.98;;
23670;SDS011;12012;51.998;7.614;2023-04-03T10:18:55;4.00;;;1.15;;
23670;SDS011;12012;51.998;7.614;2023-04-03T10:29:16;3.53;;;1.23;;
23670;SDS011;12012;51.998;7.614;2023-04-03T10:31:50;2.03;;;0.95;;
23670;SDS011;12012;51.998;7.614;2023-04-03T10:34:30;3.35;;;1.30;;
23670;SDS011;12012;51.998;7.614;2023-04-03T10:48:19;3.58;;;1.40;;
23670;SDS011;12012;51.998;7.614;2023-04-03T10:53:49;4.57;;;1.63;;
23670;SDS011;12012;51.998;7.614;2023-04-03T10:59:08;2.13;;;1.10;;
23670;SDS011;12012;51.998;7.614;2023-04-03T11:02:01;4.35;;;1.10;;
23670;SDS011;12012;51.998;7.614;2023-04-03T11:04:40;3.05;;;0.98;;
23670;SDS011;12012;51.998;7.614;2023-04-03T11:07:15;2.72;;;1.10;;
23670;SDS011;12012;51.998;7.614;2023-04-03T11:09:46;3.40;;;1.10;;
23670;SDS011;12012;51.998;7.614;2023-04-03T11:12:17;2.65;;;1.02;;
23670;SDS011;12012;51.998;7.614;2023-04-03T11:14:48;5.65;;;1.55;;
23670;SDS011;12012;51.998;7.614;2023-04-03T11:22:30;3.88;;;1.50;;
23670;SDS011;12012;51.998;7.614;2023-04-03T11:27:40;3.25;;;1.25;;
23670;SDS011;12012;51.998;7.614;2023-04-03T11:30:24;3.03;;;1.63;;
23670;SDS011;12012;51.998;7.614;2023-04-03T11:35:42;3.35;;;1.33;;
23670;SDS011;12012;51.998;7.614;2023-04-03T11:38:14;3.15;;;1.30;;
23670;SDS011;12012;51.998;7.614;2023-04-03T11:40:47;1.88;;;0.90;;
23670;SDS011;12012;51.998;7.614;2023-04-03T11:43:20;3.90;;;1.05;;
23670;SDS011;12012;51.998;7.614;2023-04-03T11:50:53;6.45;;;1.30;;
23670;SDS011;12012;51.998;7.614;2023-04-03T11:55:56;2.83;;;1.00;;
23670;SDS011;12012;51.998;7.614;2023-04-03T11:58:27;2.45;;;1.05;;
23670;SDS011;12012;51.998;7.614;2023-04-03T12:00:59;3.70;;;1.30;;
23670;SDS011;12012;51.998;7.614;2023-04-03T12:11:21;4.10;;;1.73;;
23670;SDS011;12012;51.998;7.614;2023-04-03T12:18:59;4.47;;;1.55;;
23670;SDS011;12012;51.998;7.614;2023-04-03T12:26:46;4.10;;;1.40;;
23670;SDS011;12012;51.998;7.614;2023-04-03T12:38:06;3.33;;;2.25;;
23670;SDS011;12012;51.998;7.614;2023-04-03T12:43:26;2.65;;;1.15;;
23670;SDS011;12012;51.998;7.614;2023-04-03T12:46:37;5.35;;;2.13;;
23670;SDS011;12012;51.998;7.614;2023-04-03T12:51:51;4.25;;;1.70;;
23670;SDS011;12012;51.998;7.614;2023-04-03T12:54:25;2.35;;;1.10;;
23670;SDS011;12012;51.998;7.614;2023-04-03T12:59:39;3.60;;;1.48;;
23670;SDS011;12012;51.998;7.614;2023-04-03T13:04:57;5.20;;;1.65;;
23670;SDS011;12012;51.998;7.614;2023-04-03T13:07:25;3.10;;;1.50;;
23670;SDS011;12012;51.998;7.614;2023-04-03T13:09:59;2.70;;;1.50;;
23670;SDS011;12012;51.998;7.614;2023-04-03T13:12:29;5.30;;;2.10;;
23670;SDS011;12012;51.998;7.614;2023-04-03T13:14:56;3.97;;;1.52;;
23670;SDS011;12012;51.998;7.614;2023-04-03T13:17:23;3.75;;;1.80;;
23670;SDS011;12012;51.998;7.614;2023-04-03T13:19:50;3.50;;;1.40;;
23670;SDS011;12012;51.998;7.614;2023-04-03T13:25:08;2.35;;;1.50;;
23670;SDS011;12012;51.998;7.614;2023-04-03T13:27:35;2.70;;;1.38;;
23670;SDS011;12012;51.998;7.614;2023-04-03T13:30:04;3.03;;;1.40;;
23670;SDS011;12012;51.998;7.614;2023-04-03T13:32:32;3.30;;;1.42;;
23670;SDS011;12012;51.998;7.614;2023-04-03T13:34:58;3.70;;;1.65;;
23670;SDS011;12012;51.998;7.614;2023-04-03T13:39:59;3.53;;;1.60;;
23670;SDS011;12012;51.998;7.614;2023-04-03T13:42:31;3.45;;;1.50;;
23670;SDS011;12012;51.998;7.614;2023-04-03T13:47:52;3.78;;;1.50;;
23670;SDS011;12012;51.998;7.614;2023-04-03T13:50:31;2.92;;;1.40;;
23670;SDS011;12012;51.998;7.614;2023-04-03T13:55:36;3.70;;;1.42;;
23670;SDS011;12012;51.998;7.614;2023-04-03T13:58:22;4.75;;;1.40;;
23670;SDS011;12012;51.998;7.614;2023-04-03T14:01:00;4.47;;;1.50;;
23670;SDS011;12012;51.998;7.614;2023-04-03T14:03:46;2.70;;;1.20;;
23670;SDS011;12012;51.998;7.614;2023-04-03T14:06:16;5.80;;;1.60;;
23670;SDS011;12012;51.998;7.614;2023-04-03T14:08:43;1.95;;;1.27;;
23670;SDS011;12012;51.998;7.614;2023-04-03T14:11:17;4.88;;;1.60;;
23670;SDS011;12012;51.998;7.614;2023-04-03T14:13:46;3.38;;;1.27;;
23670;SDS011;12012;51.998;7.614;2023-04-03T14:16:13;2.33;;;1.17;;
23670;SDS011;12012;51.998;7.614;2023-04-03T14:18:41;1.90;;;1.08;;
23670;SDS011;12012;51.998;7.614;2023-04-03T14:21:10;2.10;;;1.23;;
23670;SDS011;12012;51.998;7.614;2023-04-03T14:23:37;6.00;;;1.45;;
23670;SDS011;12012;51.998;7.614;2023-04-03T14:26:02;2.65;;;1.55;;
23670;SDS011;12012;51.998;7.614;2023-04-03T14:28:30;6.82;;;1.58;;
23670;SDS011;12012;51.998;7.614;2023-04-03T14:30:57;2.95;;;1.58;;
23670;SDS011;12012;51.998;7.614;2023-04-03T14:33:23;3.25;;;1.50;;
23670;SDS011;12012;51.998;7.614;2023-04-03T14:35:51;2.25;;;1.30;;
23670;SDS011;12012;51.998;7.614;2023-04-03T14:38:27;2.38;;;1.30;;
23670;SDS011;12012;51.998;7.614;2023-04-03T14:40:54;2.88;;;1.33;;
23670;SDS011;12012;51.998;7.614;2023-04-03T14:43:21;3.65;;;1.35;;
23670;SDS011;12012;51.998;7.614;2023-04-03T14:45:48;2.55;;;1.10;;
23670;SDS011;12012;51.998;7.614;2023-04-03T14:48:22;3.15;;;1.23;;
23670;SDS011;12012;51.998;7.614;2023-04-03T14:50:50;1.42;;;1.13;;
23670;SDS011;12012;51.998;7.614;2023-04-03T14:53:16;2.97;;;1.40;;
23670;SDS011;12012;51.998;7.614;2023-04-03T14:55:46;2.08;;;1.30;;
23670;SDS011;12012;51.998;7.614;2023-04-03T14:58:12;2.85;;;1.60;;
23670;SDS011;12012;51.998;7.614;2023-04-03T15:00:43;2.83;;;1.30;;
23670;SDS011;12012;51.998;7.614;2023-04-03T15:03:13;2.00;;;1.10;;
23670;SDS011;12012;51.998;7.614;2023-04-03T15:05:41;4.07;;;1.33;;
23670;SDS011;12012;51.998;7.614;2023-04-03T15:08:12;2.58;;;1.33;;
23670;SDS011;12012;51.998;7.614;2023-04-03T15:10:46;3.03;;;1.30;;
23670;SDS011;12012;51.998;7.614;2023-04-03T15:13:12;3.50;;;1.50;;
23670;SDS011;12012;51.998;7.614;2023-04-03T15:15:38;3.65;;;1.60;;
23670;SDS011;12012;51.998;7.614;2023-04-03T15:18:04;2.40;;;1.58;;
23670;SDS011;12012;51.998;7.614;2023-04-03T15:20:31;3.28;;;1.60;;
23670;SDS011;12012;51.998;7.614;2023-04-03T15:22:58;2.70;;;1.70;;
23670;SDS011;12012;51.998;7.614;2023-04-03T15:25:26;5.22;;;1.42;;
23670;SDS011;12012;51.998;7.614;2023-04-03T15:27:55;3.97;;;1.67;;
23670;SDS011;12012;51.998;7.614;2023-04-03T15:30:22;8.48;;;1.75;;
23670;SDS011;12012;51.998;7.614;2023-04-03T15:32:48;3.30;;;1.80;;
23670;SDS011;12012;51.998;7.614;2023-04-03T15:35:14;4.13;;;1.77;;
23670;SDS011;12012;51.998;7.614;2023-04-03T15:37:40;4.05;;;1.83;;
23670;SDS011;12012;51.998;7.614;2023-04-03T15:40:06;2.30;;;1.27;;
23670;SDS011;12012;51.998;7.614;2023-04-03T15:42:32;4.43;;;1.50;;
23670;SDS011;12012;51.998;7.614;2023-04-03T15:44:58;3.00;;;1.60;;
23670;SDS011;12012;51.998;7.614;2023-04-03T15:47:24;4.40;;;1.60;;
23670;SDS011;12012;51.998;7.614;2023-04-03T15:49:51;4.32;;;1.40;;
23670;SDS011;12012;51.998;7.614;2023-04-03T15:52:18;3.63;;;1.40;;
23670;SDS011;12012;51.998;7.614;2023-04-03T15:54:43;4.18;;;1.70;;
23670;SDS011;12012;51.998;7.614;2023-04-03T15:57:09;3.80;;;1.20;;
23670;SDS011;12012;51.998;7.614;2023-04-03T15:59:34;3.88;;;1.60;;
23670;SDS011;12012;51.998;7.614;2023-04-03T16:02:00;3.70;;;1.55;;
23670;SDS011;12012;51.998;7.614;2023-04-03T16:04:28;3.95;;;1.70;;
23670;SDS011;12012;51.998;7.614;2023-04-03T16:06:54;4.57;;;1.70;;
23670;SDS011;12012;51.998;7.614;2023-04-03T16:09:20;2.85;;;1.35;;
23670;SDS011;12012;51.998;7.614;2023-04-03T16:11:46;4.93;;;1.63;;
23670;SDS011;12012;51.998;7.614;2023-04-03T16:14:11;3.75;;;1.50;;
23670;SDS011;12012;51.998;7.614;2023-04-03T16:16:37;4.97;;;1.52;;
23670;SDS011;12012;51.998;7.614;2023-04-03T16:19:04;3.88;;;1.55;;
23670;SDS011;12012;51.998;7.614;2023-04-03T16:21:30;3.47;;;1.30;;
23670;SDS011;12012;51.998;7.614;2023-04-03T16:24:00;4.85;;;1.50;;
23670;SDS011;12012;51.998;7.614;2023-04-03T16:26:26;3.40;;;1.40;;
23670;SDS011;12012;51.998;7.614;2023-04-03T16:28:52;2.70;;;1.30;;
23670;SDS011;12012;51.998;7.614;2023-04-03T16:31:18;3.30;;;1.70;;
23670;SDS011;12012;51.998;7.614;2023-04-03T16:33:44;4.07;;;1.23;;
23670;SDS011;12012;51.998;7.614;2023-04-03T16:36:10;2.25;;;1.27;;
23670;SDS011;12012;51.998;7.614;2023-04-03T16:38:36;4.95;;;1.48;;
23670;SDS011;12012;51.998;7.614;2023-04-03T16:41:01;3.78;;;1.40;;
23670;SDS011;12012;51.998;7.614;2023-04-03T16:43:29;3.30;;;1.60;;
23670;SDS011;12012;51.998;7.614;2023-04-03T16:45:56;5.05;;;1.67;;
23670;SDS011;12012;51.998;7.614;2023-04-03T16:48:22;3.70;;;1.33;;
23670;SDS011;12012;51.998;7.614;2023-04-03T16:50:48;4.65;;;1.58;;
23670;SDS011;12012;51.998;7.614;2023-04-03T16:53:15;3.17;;;1.50;;
23670;SDS011;12012;51.998;7.614;2023-04-03T16:55:41;3.92;;;1.38;;